Time;durP1;ratioP1;P1;durP2;ratioP2;P2;SDS_P1;SDS_P2;PMS_P1;PMS_P2;Temp;Humidity;BMP_temperature;BMP_pressure;BME280_temperature;BME280_humidity;BME280_pressure;Samples;Min_cycle;Max_cycle;Signal;HPM_P1;HPM_P2
2021/03/02 00:02:17;;;;;;;8.02;4.65;;;;;;;4.81;78.14;98594.91;5124345;28;20061;-64
2021/03/02 00:04:46;;;;;;;6.13;3.55;;;;;;;4.39;76.21;98554.59;5105358;28;20462;-62
2021/03/02 00:07:16;;;;;;;9.30;4.75;;;;;;;4.68;76.88;98572.56;5123920;28;20035;-62
2021/03/02 00:09:43;;;;;;;5.78;4.05;;;;;;;4.83;75.52;98557.00;5105635;28;20061;-62
2021/03/02 00:12:13;;;;;;;5.65;3.88;;;;;;;4.77;75.47;98591.13;5126709;27;20047;-62
2021/03/02 00:14:39;;;;;;;8.63;4.07;;;;;;;4.99;75.41;98594.13;5109371;27;20045;-63
2021/03/02 00:17:37;;;;;;;7.13;3.72;;;;;;;5.09;74.91;98591.25;5109547;27;20055;-62
2021/03/02 00:20:20;;;;;;;5.97;3.80;;;;;;;5.13;75.37;98579.34;5111364;27;20039;-63
2021/03/02 00:22:52;;;;;;;7.05;4.10;;;;;;;5.24;75.23;98591.00;5128039;27;20516;-63
2021/03/02 00:25:18;;;;;;;8.85;5.40;;;;;;;5.05;74.85;98532.50;5109178;27;20023;-62
2021/03/02 00:27:45;;;;;;;16.27;7.20;;;;;;;5.42;72.92;98576.44;5109117;27;20100;-63
2021/03/02 00:30:15;;;;;;;7.50;4.43;;;;;;;5.40;72.40;98579.47;5127813;27;20035;-63
2021/03/02 00:32:45;;;;;;;5.32;3.78;;;;;;;5.44;71.96;98585.16;5127752;27;20055;-64
2021/03/02 00:35:11;;;;;;;34.33;11.52;;;;;;;5.36;72.92;98572.13;5127961;27;20031;-62
2021/03/02 00:37:37;;;;;;;16.52;6.13;;;;;;;5.35;72.87;98576.81;5127777;27;20512;-62
2021/03/02 00:40:03;;;;;;;14.05;5.75;;;;;;;5.02;73.76;98533.13;5127913;27;20096;-63
2021/03/02 00:42:29;;;;;;;16.88;6.25;;;;;;;5.13;72.94;98573.03;5127829;27;20451;-63
2021/03/02 00:44:54;;;;;;;13.38;5.70;;;;;;;4.14;74.13;98420.53;5127354;27;20027;-62
2021/03/02 00:47:20;;;;;;;19.83;5.57;;;;;;;4.69;74.95;98563.22;5127329;27;20035;-62
2021/03/02 00:49:46;;;;;;;13.75;4.78;;;;;;;4.75;76.20;98571.41;5127454;27;20504;-61
2021/03/02 00:52:12;;;;;;;7.05;2.80;;;;;;;4.42;77.52;98573.22;5108749;27;20494;-63
2021/03/02 00:54:38;;;;;;;4.95;2.10;;;;;;;4.19;79.57;98552.91;5127642;27;20027;-61
2021/03/02 00:57:04;;;;;;;3.50;2.20;;;;;;;3.67;80.73;98445.25;5109013;27;20038;-61
2021/03/02 00:59:29;;;;;;;6.68;3.00;;;;;;;3.89;81.87;98534.06;5109482;27;20035;-62
2021/03/02 01:01:55;;;;;;;14.27;4.20;;;;;;;4.27;82.62;98570.63;5127619;27;20420;-61
2021/03/02 01:04:21;;;;;;;10.38;4.00;;;;;;;2.19;80.47;98215.59;5127292;27;20042;-62
2021/03/02 01:06:46;;;;;;;8.98;3.95;;;;;;;4.35;81.46;98570.81;5126885;27;20044;-61
2021/03/02 01:09:14;;;;;;;6.88;3.90;;;;;;;4.42;82.70;98579.53;5127232;27;20031;-62
2021/03/02 01:11:40;;;;;;;11.68;4.95;;;;;;;4.35;81.24;98568.06;5108571;27;20034;-62
2021/03/02 01:14:06;;;;;;;12.63;4.78;;;;;;;3.60;81.16;98447.53;5127170;27;20436;-62
2021/03/02 01:16:31;;;;;;;17.70;5.78;;;;;;;3.13;80.93;98385.31;5108154;27;20528;-62
2021/03/02 01:18:57;;;;;;;15.77;6.47;;;;;;;3.97;81.07;98496.97;5126754;27;20211;-62
2021/03/02 01:21:23;;;;;;;9.30;5.50;;;;;;;4.20;82.65;98538.09;5127019;27;20951;-60
2021/03/02 01:23:48;;;;;;;6.85;4.72;;;;;;;4.22;82.49;98513.91;5125892;27;20038;-63
2021/03/02 01:26:14;;;;;;;13.40;5.80;;;;;;;4.73;82.45;98562.66;5126753;27;20027;-61
2021/03/02 01:28:40;;;;;;;12.15;6.85;;;;;;;4.06;82.16;98449.41;5126848;27;20095;-61
2021/03/02 01:31:06;;;;;;;13.43;7.13;;;;;;;4.94;82.19;98561.25;5126500;27;20122;-62
2021/03/02 01:33:31;;;;;;;14.80;7.60;;;;;;;5.02;81.03;98561.41;5126907;27;20069;-61
2021/03/02 01:35:59;;;;;;;18.95;10.77;;;;;;;4.81;80.23;98520.78;5126916;27;20413;-61
2021/03/02 01:38:25;;;;;;;17.15;8.77;;;;;;;5.08;80.12;98559.38;5108320;27;20035;-60
2021/03/02 01:40:51;;;;;;;14.82;8.02;;;;;;;4.58;79.18;98484.91;5126421;27;20023;-61
2021/03/02 01:43:17;;;;;;;19.13;8.07;;;;;;;5.19;79.48;98560.84;5126569;27;20039;-60
2021/03/02 01:45:43;;;;;;;10.00;5.57;;;;;;;4.63;79.17;98465.63;5126316;27;20030;-63
2021/03/02 01:48:09;;;;;;;16.17;7.13;;;;;;;4.77;77.09;98489.56;5107575;27;20076;-61
2021/03/02 01:50:35;;;;;;;5.57;3.05;;;;;;;4.87;78.28;98530.63;5106939;27;20031;-62
2021/03/02 01:53:00;;;;;;;6.60;3.50;;;;;;;5.17;76.51;98563.09;5126185;27;20043;-61
2021/03/02 01:55:26;;;;;;;4.80;2.50;;;;;;;4.75;75.07;98516.50;5107886;27;20038;-64
2021/03/02 01:57:52;;;;;;;5.40;2.45;;;;;;;4.98;75.23;98565.03;5108153;27;20377;-62
2021/03/02 02:00:31;;;;;;;4.10;2.03;;;;;;;4.16;77.65;98525.25;5126032;27;20069;-63
2021/03/02 02:02:59;;;;;;;8.38;4.10;;;;;;;4.49;79.43;98568.16;5108014;27;20126;-63
2021/03/02 02:05:27;;;;;;;1.80;1.20;;;;;;;4.15;78.34;98562.84;5125727;27;20123;-61
2021/03/02 02:08:00;;;;;;;2.17;1.25;;;;;;;3.31;79.18;98450.31;5126018;27;20039;-63
2021/03/02 02:10:25;;;;;;;1.98;1.20;;;;;;;4.09;79.89;98564.00;5107220;27;20035;-61
2021/03/02 02:13:01;;;;;;;2.00;1.30;;;;;;;3.92;78.86;98566.38;5126264;27;20514;-62
2021/03/02 02:15:34;;;;;;;5.32;2.45;;;;;;;4.02;79.43;98568.19;5125685;27;20047;-62
2021/03/02 02:18:07;;;;;;;3.40;1.20;;;;;;;3.26;79.68;98447.63;5126065;27;20542;-62
2021/03/02 02:20:50;;;;;;;1.63;1.02;;;;;;;4.21;80.20;98569.88;5125820;27;20114;-61
2021/03/02 02:23:45;;;;;;;1.65;1.10;;;;;;;4.33;80.03;98564.78;5126135;27;20122;-61
2021/03/02 02:26:21;;;;;;;2.03;1.20;;;;;;;2.86;79.15;98372.19;5107367;27;20031;-61
2021/03/02 02:28:48;;;;;;;3.75;2.00;;;;;;;4.19;78.36;98558.38;5126167;27;20031;-61
2021/03/02 02:31:16;;;;;;;2.28;1.50;;;;;;;4.26;78.65;98563.53;5126060;27;20399;-60
2021/03/02 02:33:44;;;;;;;3.22;2.17;;;;;;;3.67;79.17;98492.66;5125642;27;20520;-62
2021/03/02 02:36:12;;;;;;;10.00;4.30;;;;;;;4.26;78.03;98569.84;5125430;27;20035;-63
2021/03/02 02:38:43;;;;;;;4.82;2.22;;;;;;;4.17;76.55;98565.28;5125514;27;20027;-61
2021/03/02 02:41:09;;;;;;;3.60;1.67;;;;;;;4.14;76.32;98565.88;5124763;27;20405;-61
2021/03/02 02:43:37;;;;;;;8.60;3.67;;;;;;;3.97;77.46;98516.97;5125169;27;20514;-62
2021/03/02 02:46:03;;;;;;;7.18;2.58;;;;;;;4.38;75.50;98572.97;5123836;27;20429;-63
2021/03/02 02:48:31;;;;;;;3.13;1.98;;;;;;;4.25;76.17;98568.19;5106941;27;20039;-62
2021/03/02 02:51:01;;;;;;;7.72;2.75;;;;;;;3.88;76.00;98528.88;5125583;27;20026;-61
2021/03/02 02:53:31;;;;;;;5.43;2.50;;;;;;;4.26;75.75;98564.34;5125121;27;20063;-61
2021/03/02 02:56:02;;;;;;;11.52;5.20;;;;;;;4.20;75.82;98538.09;5125063;27;20066;-62
2021/03/02 02:58:39;;;;;;;14.88;5.50;;;;;;;4.35;73.97;98559.84;5123517;27;20027;-61
2021/03/02 03:01:07;;;;;;;9.77;4.15;;;;;;;4.46;73.69;98575.06;5106492;27;20446;-61
2021/03/02 03:03:37;;;;;;;9.60;4.43;;;;;;;4.74;74.24;98580.75;5125068;27;20031;-61
2021/03/02 03:06:07;;;;;;;10.05;3.80;;;;;;;4.72;72.72;98588.47;5124798;27;20033;-64
2021/03/02 03:08:33;;;;;;;4.13;2.00;;;;;;;4.27;72.11;98522.09;5125308;27;20524;-62
2021/03/02 03:11:01;;;;;;;4.45;2.03;;;;;;;4.31;73.54;98583.50;5124972;27;20078;-61
2021/03/02 03:13:35;;;;;;;3.58;1.63;;;;;;;4.07;73.29;98581.84;5106197;27;20845;-62
2021/03/02 03:16:07;;;;;;;2.88;1.70;;;;;;;4.28;74.85;98589.53;5102231;28;20064;-62
2021/03/02 03:18:45;;;;;;;2.78;1.77;;;;;;;4.32;75.32;98578.81;5102663;28;20036;-65
2021/03/02 03:21:13;;;;;;;3.70;2.22;;;;;;;4.59;75.06;98596.31;5104128;28;20084;-62
2021/03/02 03:23:41;;;;;;;5.30;2.55;;;;;;;4.76;74.69;98605.97;5104657;28;20486;-62
2021/03/02 03:26:09;;;;;;;3.40;2.30;;;;;;;4.86;72.27;98600.34;5104469;28;20036;-62
2021/03/02 03:28:35;;;;;;;3.83;2.38;;;;;;;4.81;71.66;98592.16;5104396;28;20122;-62
2021/03/02 03:31:02;;;;;;;4.28;2.55;;;;;;;4.94;71.02;98602.44;5103973;28;20036;-61
2021/03/02 03:33:29;;;;;;;4.30;2.47;;;;;;;4.83;71.26;98568.00;5104239;28;20040;-62
2021/03/02 03:35:56;;;;;;;9.65;5.38;;;;;;;4.93;71.84;98600.81;5103875;28;20080;-63
2021/03/02 03:38:22;;;;;;;4.97;3.20;;;;;;;4.89;71.74;98577.78;5104159;28;20116;-64
2021/03/02 03:40:48;;;;;;;5.53;3.25;;;;;;;5.11;71.09;98597.22;5102247;28;20140;-62
2021/03/02 03:43:13;;;;;;;4.85;3.33;;;;;;;5.01;70.23;98569.94;5102981;28;20038;-63
2021/03/02 03:45:41;;;;;;;4.53;2.42;;;;;;;4.97;69.88;98552.41;5104068;28;20089;-62
2021/03/02 03:48:10;;;;;;;4.70;2.90;;;;;;;5.24;70.23;98601.97;5106910;28;20133;-62
2021/03/02 03:50:36;;;;;;;4.38;2.75;;;;;;;4.18;69.51;98466.28;5108281;28;20043;-62
2021/03/02 03:53:03;;;;;;;4.82;3.72;;;;;;;5.11;70.57;98598.06;5106577;28;20088;-64
2021/03/02 03:55:36;;;;;;;5.43;3.35;;;;;;;5.06;70.68;98594.56;5107984;28;20038;-63
2021/03/02 03:58:02;;;;;;;5.78;3.45;;;;;;;5.21;70.61;98591.59;5108268;28;20064;-63
2021/03/02 04:00:30;;;;;;;5.93;3.75;;;;;;;4.91;71.25;98597.53;5107897;27;20459;-63
2021/03/02 04:02:55;;;;;;;6.63;4.13;;;;;;;3.87;72.01;98443.06;5106952;28;20019;-62
2021/03/02 04:05:21;;;;;;;5.55;3.47;;;;;;;4.67;71.92;98575.63;5107259;28;20088;-63
2021/03/02 04:07:50;;;;;;;5.95;4.13;;;;;;;5.04;72.23;98603.13;5106283;28;20036;-63
2021/03/02 04:10:16;;;;;;;5.10;3.22;;;;;;;4.86;72.04;98594.84;5107575;28;20040;-62
2021/03/02 04:12:46;;;;;;;5.00;3.72;;;;;;;4.55;72.30;98592.50;5107942;28;20036;-62
2021/03/02 04:15:14;;;;;;;5.47;3.38;;;;;;;4.60;72.64;98595.19;5107293;28;20035;-62
2021/03/02 04:17:48;;;;;;;6.63;4.05;;;;;;;4.39;72.75;98574.59;5107351;28;20052;-62
2021/03/02 04:20:13;;;;;;;5.65;3.40;;;;;;;4.32;73.56;98587.88;5107719;28;20220;-63
2021/03/02 04:22:39;;;;;;;4.47;3.22;;;;;;;4.39;73.51;98601.22;5107789;27;20063;-62
2021/03/02 04:25:06;;;;;;;4.70;2.92;;;;;;;4.08;72.98;98528.63;5107181;28;20069;-62
2021/03/02 04:27:32;;;;;;;5.75;3.47;;;;;;;4.17;73.56;98590.75;5105957;28;20039;-64
2021/03/02 04:29:58;;;;;;;7.50;3.78;;;;;;;4.23;74.13;98578.66;5107613;28;20033;-62
2021/03/02 04:32:23;;;;;;;7.03;3.80;;;;;;;3.65;73.67;98475.69;5107061;28;20042;-63
2021/03/02 04:34:49;;;;;;;6.93;4.38;;;;;;;4.28;73.44;98573.06;5107355;27;20038;-61
2021/03/02 04:37:15;;;;;;;8.10;4.43;;;;;;;3.12;72.75;98397.38;5105801;28;20391;-62
2021/03/02 04:39:45;;;;;;;8.15;4.45;;;;;;;3.64;72.88;98487.75;5106018;28;20740;-62
2021/03/02 04:42:11;;;;;;;8.85;4.85;;;;;;;4.30;73.80;98587.31;5107212;28;20035;-62
2021/03/02 04:44:37;;;;;;;7.55;5.10;;;;;;;3.99;76.56;98520.25;5106977;28;20429;-63
2021/03/02 04:47:02;;;;;;;32.70;16.95;;;;;;;4.33;79.56;98574.97;5106868;28;20059;-62
2021/03/02 04:49:28;;;;;;;32.15;16.33;;;;;;;4.34;80.01;98566.44;5105162;28;20036;-64
2021/03/02 04:51:54;;;;;;;12.60;4.70;;;;;;;4.20;80.47;98532.63;5106969;28;20089;-62
2021/03/02 04:54:20;;;;;;;10.20;5.13;;;;;;;4.49;81.55;98585.44;5107003;28;20031;-62
2021/03/02 04:56:46;;;;;;;8.57;4.35;;;;;;;4.58;79.96;98583.69;5105380;28;20134;-63
2021/03/02 04:59:18;;;;;;;21.57;7.70;;;;;;;4.01;82.18;98545.47;5106227;28;20036;-63
2021/03/02 05:01:44;;;;;;;21.27;7.85;;;;;;;4.18;83.52;98583.38;5106717;27;20370;-62
2021/03/02 05:04:10;;;;;;;10.35;4.95;;;;;;;4.44;83.30;98592.94;5105231;28;20028;-62
2021/03/02 05:06:35;;;;;;;13.40;5.53;;;;;;;4.41;84.08;98594.31;5104992;28;20035;-62
2021/03/02 05:09:01;;;;;;;13.68;6.28;;;;;;;4.44;84.34;98588.25;5106815;28;20038;-64
2021/03/02 05:11:27;;;;;;;14.02;7.25;;;;;;;4.50;84.31;98598.03;5106829;28;20023;-62
2021/03/02 05:13:53;;;;;;;15.13;6.93;;;;;;;4.37;85.27;98593.28;5106702;28;20514;-63
2021/03/02 05:16:18;;;;;;;13.75;5.97;;;;;;;4.36;85.77;98594.38;5114994;27;20039;-63
2021/03/02 05:18:47;;;;;;;11.05;5.43;;;;;;;3.40;86.25;98473.22;5126960;27;20534;-62
2021/03/02 05:21:12;;;;;;;12.57;5.78;;;;;;;4.20;87.59;98603.91;5126743;27;20019;-62
2021/03/02 05:23:40;;;;;;;8.45;5.47;;;;;;;4.47;85.32;98593.16;5108400;27;20050;-65
2021/03/02 05:26:08;;;;;;;12.63;6.40;;;;;;;4.53;85.14;98592.00;5126684;27;20035;-62
2021/03/02 05:28:34;;;;;;;14.70;6.97;;;;;;;4.25;86.45;98606.59;5126962;27;20096;-61
2021/03/02 05:31:01;;;;;;;9.52;5.60;;;;;;;4.04;88.93;98605.19;5127021;27;20136;-63
2021/03/02 05:33:27;;;;;;;11.82;5.82;;;;;;;3.89;87.36;98553.25;5127201;27;20054;-62
2021/03/02 05:35:53;;;;;;;12.25;5.40;;;;;;;4.44;85.80;98598.44;5126205;27;20102;-62
2021/03/02 05:38:18;;;;;;;13.15;6.88;;;;;;;4.21;84.40;98567.16;5126714;27;20039;-61
2021/03/02 05:40:44;;;;;;;8.63;4.13;;;;;;;3.87;89.18;98609.47;5126220;27;20497;-62
2021/03/02 05:43:10;;;;;;;5.70;3.50;;;;;;;3.74;90.43;98591.78;5125973;27;20042;-64
2021/03/02 05:45:36;;;;;;;9.75;5.55;;;;;;;4.04;87.67;98610.66;5126015;27;20138;-61
2021/03/02 05:48:06;;;;;;;19.83;10.10;;;;;;;4.32;87.48;98611.72;5126261;27;20478;-62
2021/03/02 05:50:32;;;;;;;8.10;4.78;;;;;;;4.20;87.39;98614.88;5126464;27;20023;-61
2021/03/02 05:53:01;;;;;;;9.40;3.95;;;;;;;3.62;88.24;98525.56;5126321;27;20027;-63
2021/03/02 05:55:30;;;;;;;7.78;4.03;;;;;;;3.27;87.25;98426.53;5125888;27;20035;-63
2021/03/02 05:57:56;;;;;;;9.65;4.88;;;;;;;4.50;86.10;98619.19;5126152;27;20038;-61
2021/03/02 06:00:23;;;;;;;11.65;5.72;;;;;;;1.83;85.19;98173.31;5126002;27;20034;-61
2021/03/02 06:02:49;;;;;;;16.45;7.05;;;;;;;4.11;85.37;98523.38;5126069;27;20111;-63
2021/03/02 06:05:15;;;;;;;12.05;6.55;;;;;;;4.69;83.67;98596.16;5125692;27;20035;-62
2021/03/02 06:07:41;;;;;;;11.38;6.82;;;;;;;4.94;83.46;98621.66;5126507;27;20121;-61
2021/03/02 06:10:10;;;;;;;16.48;8.23;;;;;;;5.04;82.06;98619.59;5125331;27;20516;-61
2021/03/02 06:12:58;;;;;;;12.50;6.50;;;;;;;5.14;81.12;98613.94;5125119;27;20078;-63
2021/03/02 06:15:26;;;;;;;10.20;6.25;;;;;;;5.17;80.70;98612.53;5125745;27;20406;-62
2021/03/02 06:18:11;;;;;;;17.95;10.63;;;;;;;5.19;80.69;98611.13;5106675;27;20062;-63
2021/03/02 06:20:38;;;;;;;16.60;9.07;;;;;;;5.19;80.33;98613.88;5125326;27;20032;-61
2021/03/02 06:23:30;;;;;;;13.57;7.53;;;;;;;5.23;79.83;98622.34;5125799;27;20035;-62
2021/03/02 06:26:13;;;;;;;13.15;5.88;;;;;;;5.14;80.43;98613.13;5107270;27;20035;-62
2021/03/02 06:28:44;;;;;;;13.55;6.47;;;;;;;5.25;79.73;98609.13;5126053;27;20832;-62
2021/03/02 06:31:34;;;;;;;12.32;6.97;;;;;;;5.35;79.47;98608.94;5124648;27;20506;-62
2021/03/02 06:34:14;;;;;;;13.82;6.72;;;;;;;5.15;78.64;98566.16;5106812;27;20057;-62
2021/03/02 06:36:53;;;;;;;9.80;5.38;;;;;;;5.47;78.79;98606.59;5106419;27;20505;-63
2021/03/02 06:39:29;;;;;;;9.35;5.30;;;;;;;5.51;78.28;98613.09;5124725;27;20097;-62
2021/03/02 06:42:20;;;;;;;7.40;4.20;;;;;;;5.55;77.43;98620.44;5124965;27;20057;-61
2021/03/02 06:44:49;;;;;;;7.93;4.32;;;;;;;5.50;77.70;98616.97;5125946;27;20054;-62
2021/03/02 06:47:33;;;;;;;11.82;6.15;;;;;;;5.54;77.40;98607.81;5125506;27;20114;-62
2021/03/02 06:50:01;;;;;;;17.45;8.32;;;;;;;5.63;77.08;98605.19;5106676;27;20031;-62
2021/03/02 06:52:34;;;;;;;13.90;7.90;;;;;;;5.62;75.98;98603.56;5106522;27;20652;-62
2021/03/02 06:55:00;;;;;;;28.83;12.88;;;;;;;5.39;75.90;98555.06;5124673;27;20091;-62
2021/03/02 06:57:26;;;;;;;58.40;21.48;;;;;;;5.59;76.51;98593.19;5125023;27;20035;-63
2021/03/02 06:59:57;;;;;;;47.42;18.52;;;;;;;5.70;77.10;98589.97;5124986;27;20031;-62
2021/03/02 07:02:33;;;;;;;35.92;16.35;;;;;;;5.95;76.50;98585.97;5105933;27;20086;-61
2021/03/02 07:05:12;;;;;;;24.73;14.52;;;;;;;6.24;73.94;98578.28;5105925;27;20045;-61
2021/03/02 07:07:40;;;;;;;24.23;11.93;;;;;;;6.45;72.64;98573.97;5106345;27;20095;-61
2021/03/02 07:10:09;;;;;;;17.30;10.07;;;;;;;6.24;69.58;98516.91;5124623;27;20028;-61
2021/03/02 07:12:37;;;;;;;18.63;10.25;;;;;;;6.73;68.28;98553.59;5105944;27;20031;-61
2021/03/02 07:15:07;;;;;;;21.85;12.88;;;;;;;6.99;66.51;98551.88;5124586;27;20066;-62
2021/03/02 07:17:44;;;;;;;19.35;10.18;;;;;;;7.27;64.94;98580.97;5119480;27;20071;-63
2021/03/02 07:20:12;;;;;;;11.68;8.60;;;;;;;7.47;63.29;98571.41;5103600;28;20031;-62
2021/03/02 07:22:40;;;;;;;12.90;7.50;;;;;;;7.42;62.20;98577.88;5103764;28;20069;-62
2021/03/02 07:25:10;;;;;;;12.82;7.68;;;;;;;7.43;61.73;98579.50;5104138;28;20032;-64
2021/03/02 07:27:42;;;;;;;11.63;8.00;;;;;;;7.74;60.38;98572.09;5104135;28;20039;-64
2021/03/02 07:30:13;;;;;;;14.82;8.73;;;;;;;7.80;59.16;98569.19;5093919;28;20127;-61
2021/03/02 07:32:40;;;;;;;14.88;9.00;;;;;;;7.25;59.16;98478.53;5096714;28;20127;-63
2021/03/02 07:35:14;;;;;;;16.00;9.27;;;;;;;7.80;59.73;98571.97;5082084;28;20157;-67
2021/03/02 07:37:40;;;;;;;11.80;7.90;;;;;;;7.12;59.23;98468.38;5086136;28;20044;-73
2021/03/02 07:40:08;;;;;;;12.63;7.97;;;;;;;7.49;59.87;98575.47;5085671;28;20051;-65
2021/03/02 07:42:36;;;;;;;13.60;8.45;;;;;;;7.33;58.64;98491.53;5084403;28;20035;-66
2021/03/02 07:45:09;;;;;;;12.73;7.97;;;;;;;7.79;59.02;98567.59;5098329;28;20441;-66
2021/03/02 07:47:49;;;;;;;14.55;8.57;;;;;;;6.79;58.46;98403.63;5093655;28;20070;-65
2021/03/02 07:50:27;;;;;;;11.02;7.72;;;;;;;7.49;57.29;98522.31;5093241;28;20115;-64
2021/03/02 07:53:20;;;;;;;10.90;6.85;;;;;;;8.15;57.15;98558.06;5087657;28;20036;-64
2021/03/02 07:55:48;;;;;;;15.25;8.43;;;;;;;8.27;58.40;98557.47;5083148;28;20413;-63
2021/03/02 07:58:18;;;;;;;10.07;6.63;;;;;;;8.31;57.77;98561.22;5083439;28;20042;-62
2021/03/02 08:00:51;;;;;;;8.75;5.65;;;;;;;7.62;58.78;98555.31;5083225;28;20043;-64
2021/03/02 08:03:28;;;;;;;8.52;5.28;;;;;;;6.58;58.49;98424.50;5097063;28;20417;-64
2021/03/02 08:05:59;;;;;;;9.98;6.40;;;;;;;7.71;57.92;98498.25;5096260;28;20039;-68
2021/03/02 08:08:24;;;;;;;7.82;5.32;;;;;;;8.34;55.93;98546.78;5096836;28;20028;-66
2021/03/02 08:10:56;;;;;;;7.53;4.95;;;;;;;8.19;55.96;98547.19;5086467;28;20483;-63
2021/03/02 08:13:49;;;;;;;8.52;5.18;;;;;;;7.91;57.11;98543.81;5089346;28;20124;-64
2021/03/02 08:16:35;;;;;;;9.13;5.53;;;;;;;7.46;57.68;98512.69;5098703;28;20043;-63
2021/03/02 08:19:37;;;;;;;9.43;6.38;;;;;;;8.59;54.67;98540.53;5123744;28;20038;-62
2021/03/02 08:22:43;;;;;;;7.63;4.88;;;;;;;8.96;52.98;98545.50;5106250;28;20039;-63
2021/03/02 08:25:11;;;;;;;6.72;4.32;;;;;;;9.06;51.88;98495.41;5099427;28;20035;-65
2021/03/02 08:27:45;;;;;;;6.00;4.22;;;;;;;9.36;50.48;98538.66;5112891;28;20122;-71
2021/03/02 08:30:11;;;;;;;;;;;;;;;9.44;50.05;98526.78;5085741;28;20087;-65
2021/03/02 08:32:42;;;;;;;7.18;4.90;;;;;;;9.07;49.99;98488.75;5124108;27;19975;-65
2021/03/02 08:35:09;;;;;;;6.82;4.85;;;;;;;9.33;50.44;98528.25;5127496;27;20038;-62
2021/03/02 08:37:41;;;;;;;6.90;4.80;;;;;;;9.40;49.83;98522.25;5127151;27;20042;-65
2021/03/02 08:40:13;;;;;;;6.15;4.50;;;;;;;8.76;51.28;98524.00;5133533;27;20083;-63
2021/03/02 08:43:02;;;;;;;6.90;4.07;;;;;;;8.81;51.03;98515.56;5134079;27;20039;-65
2021/03/02 08:45:29;;;;;;;7.65;5.45;;;;;;;9.13;50.74;98520.63;5122198;27;20023;-64
2021/03/02 08:48:33;;;;;;;7.35;4.63;;;;;;;9.64;48.87;98512.28;5094751;28;20089;-65
2021/03/02 08:51:01;;;;;;;6.45;4.72;;;;;;;9.81;48.58;98512.25;5026141;28;20060;-65
2021/03/02 08:53:41;;;;;;;7.38;4.28;;;;;;;9.82;47.91;98511.09;5095601;27;20108;-59
2021/03/02 08:56:18;;;;;;;6.50;4.70;;;;;;;10.01;49.00;98502.41;5090114;28;20494;-64
2021/03/02 08:58:52;;;;;;;8.77;5.30;;;;;;;10.23;48.28;98500.25;5106816;27;20031;-64
2021/03/02 09:01:21;;;;;;;8.32;4.95;;;;;;;10.53;47.81;98501.06;5107441;27;20031;-67
2021/03/02 09:03:47;;;;;;;7.38;5.40;;;;;;;10.70;46.51;98506.53;5119274;27;20039;-61
2021/03/02 09:06:24;;;;;;;8.30;6.28;;;;;;;10.58;45.85;98498.94;5124087;27;20022;-60
2021/03/02 09:09:13;;;;;;;6.20;4.75;;;;;;;10.73;45.21;98487.25;5107916;27;20055;-59
2021/03/02 09:12:05;;;;;;;9.07;5.55;;;;;;;10.87;46.40;98494.50;5106545;27;20047;-59
2021/03/02 09:14:36;;;;;;;10.73;6.05;;;;;;;10.99;46.94;98489.00;5103730;28;20066;-59
2021/03/02 09:17:04;;;;;;;8.63;6.18;;;;;;;11.31;45.05;98560.41;5106517;28;20048;-58
2021/03/02 09:19:33;;;;;;;7.93;4.82;;;;;;;11.38;45.12;98449.69;5106086;28;20594;-58
2021/03/02 09:22:05;;;;;;;7.35;4.75;;;;;;;11.84;44.26;98488.25;5106099;28;20031;-59
2021/03/02 09:24:33;;;;;;;6.05;4.60;;;;;;;12.03;42.53;98467.13;5105918;28;20498;-61
2021/03/02 09:27:02;;;;;;;6.32;4.72;;;;;;;11.92;41.82;98426.25;5105225;27;20168;-57
2021/03/02 09:29:33;;;;;;;8.15;4.93;;;;;;;12.20;43.07;98510.56;5126549;27;20610;-60
2021/03/02 09:32:03;;;;;;;5.68;4.20;;;;;;;11.01;43.46;98478.41;5107626;27;20516;-59
2021/03/02 09:34:34;;;;;;;7.93;5.35;;;;;;;9.03;42.89;98109.94;5126295;27;20030;-59
2021/03/02 09:37:08;;;;;;;5.90;4.22;;;;;;;12.11;41.78;98479.28;5126493;27;20027;-58
2021/03/02 09:39:35;;;;;;;5.53;4.60;;;;;;;12.53;41.09;98483.50;5107285;27;20134;-59
2021/03/02 09:42:12;;;;;;;9.50;6.28;;;;;;;12.80;39.19;98474.44;5125947;27;20030;-58
2021/03/02 09:44:43;;;;;;;7.07;4.30;;;;;;;11.48;40.98;98479.78;5125525;27;20037;-58
2021/03/02 09:47:09;;;;;;;6.13;4.75;;;;;;;11.23;41.41;98486.38;5125966;27;20523;-60
2021/03/02 09:49:36;;;;;;;7.07;4.32;;;;;;;10.86;41.92;98487.34;5126077;27;20023;-57
2021/03/02 09:52:03;;;;;;;8.82;6.40;;;;;;;10.59;43.01;98434.03;5126123;27;20023;-58
2021/03/02 09:54:28;;;;;;;7.40;4.55;;;;;;;10.54;42.01;98398.22;5125928;27;20405;-58
2021/03/02 09:56:59;;;;;;;6.50;4.40;;;;;;;9.33;44.23;98367.88;5107594;27;20027;-57
2021/03/02 09:59:25;;;;;;;7.05;4.40;;;;;;;9.94;43.80;98478.00;5126245;27;20394;-58
2021/03/02 10:01:52;;;;;;;5.78;4.07;;;;;;;10.78;43.50;98452.19;5125906;27;20456;-58
2021/03/02 10:04:19;;;;;;;7.68;3.97;;;;;;;10.77;43.84;98467.16;5125601;27;20118;-61
2021/03/02 10:06:45;;;;;;;6.40;4.20;;;;;;;10.28;42.31;98372.66;5106979;27;20499;-58
2021/03/02 10:09:37;;;;;;;5.32;4.20;;;;;;;11.25;41.30;98423.06;5125816;27;20062;-58
2021/03/02 10:12:07;;;;;;;5.30;4.18;;;;;;;11.62;41.22;98449.75;5122514;27;20450;-58
2021/03/02 10:14:37;;;;;;;6.65;4.35;;;;;;;11.71;41.10;98436.66;5126055;27;20027;-58
2021/03/02 10:17:03;;;;;;;4.68;3.97;;;;;;;12.15;41.56;98446.91;5125836;27;20058;-59
2021/03/02 10:19:30;;;;;;;3.95;3.10;;;;;;;9.96;41.77;98356.69;5125558;27;20034;-59
2021/03/02 10:21:58;;;;;;;5.25;4.00;;;;;;;11.03;41.08;98426.19;5125371;27;20031;-57
2021/03/02 10:24:30;;;;;;;5.75;4.40;;;;;;;11.58;40.66;98443.28;5125471;27;20038;-58
2021/03/02 10:26:58;;;;;;;5.60;3.70;;;;;;;11.43;39.86;98380.13;5125316;27;20041;-59
2021/03/02 10:29:24;;;;;;;4.78;3.85;;;;;;;12.08;39.69;98436.34;5125516;27;20436;-58
2021/03/02 10:31:53;;;;;;;5.65;4.03;;;;;;;11.45;40.04;98372.25;5125480;27;20031;-58
2021/03/02 10:34:21;;;;;;;5.10;4.22;;;;;;;12.07;39.43;98445.03;5125432;27;20046;-58
2021/03/02 10:36:56;;;;;;;5.28;4.07;;;;;;;12.10;38.95;98345.16;5106762;27;20023;-59
2021/03/02 10:39:22;;;;;;;5.68;3.97;;;;;;;12.17;38.65;98422.38;5125286;27;20114;-59
2021/03/02 10:41:47;;;;;;;4.70;3.65;;;;;;;12.47;38.00;98420.94;5106223;27;20446;-58
2021/03/02 10:44:14;;;;;;;7.20;4.45;;;;;;;12.77;38.21;98425.06;5124682;27;20034;-58
2021/03/02 10:46:41;;;;;;;6.40;4.53;;;;;;;12.19;38.39;98292.25;5124844;27;20039;-58
2021/03/02 10:49:07;;;;;;;8.77;3.90;;;;;;;12.65;37.58;98405.63;5106598;27;20078;-58
2021/03/02 10:51:33;;;;;;;4.13;3.72;;;;;;;12.85;38.52;98407.41;5106553;27;20031;-61
2021/03/02 10:54:00;;;;;;;6.55;4.93;;;;;;;12.38;38.98;98378.56;5125150;27;20084;-58
2021/03/02 10:56:26;;;;;;;7.82;5.22;;;;;;;12.09;37.65;98331.63;5124532;27;20031;-59
2021/03/02 10:58:52;;;;;;;3.88;3.58;;;;;;;12.57;37.23;98350.97;5106362;27;20059;-59
2021/03/02 11:01:21;;;;;;;4.00;3.60;;;;;;;13.11;36.81;98374.47;5124403;27;20066;-59
2021/03/02 11:03:47;;;;;;;5.15;4.13;;;;;;;13.18;36.52;98374.66;5106447;27;20122;-59
2021/03/02 11:06:15;;;;;;;5.13;4.43;;;;;;;13.11;37.37;98368.91;5124833;27;20539;-59
2021/03/02 11:08:43;;;;;;;4.47;3.90;;;;;;;13.48;36.27;98356.38;5124950;27;20561;-59
2021/03/02 11:11:09;;;;;;;4.13;3.72;;;;;;;12.41;37.44;98365.97;5123508;27;20380;-62
2021/03/02 11:13:35;;;;;;;4.85;3.95;;;;;;;11.57;37.44;98211.34;5096125;28;20084;-62
2021/03/02 11:16:01;;;;;;;5.60;4.10;;;;;;;9.11;38.21;97945.19;5106515;27;20031;-61
2021/03/02 11:18:27;;;;;;;18.25;6.65;;;;;;;11.60;38.31;98266.13;5113780;27;20042;-63
2021/03/02 11:20:53;;;;;;;4.70;3.83;;;;;;;11.96;37.52;98280.84;5121558;27;20509;-63
2021/03/02 11:23:18;;;;;;;4.35;3.70;;;;;;;12.30;37.27;98276.69;5120708;27;20111;-64
2021/03/02 11:25:44;;;;;;;5.18;4.28;;;;;;;12.73;36.64;98351.84;5113727;27;20034;-62
2021/03/02 11:28:11;;;;;;;5.50;3.80;;;;;;;11.88;37.89;98309.53;5106989;27;20035;-63
2021/03/02 11:30:39;;;;;;;5.90;4.00;;;;;;;12.29;38.48;98335.41;5104186;27;20126;-62
2021/03/02 11:33:05;;;;;;;6.10;4.15;;;;;;;12.36;37.81;98332.84;5123797;27;20042;-62
2021/03/02 11:35:31;;;;;;;7.40;5.15;;;;;;;12.21;37.77;98284.38;5123485;27;20358;-61
2021/03/02 11:37:57;;;;;;;9.15;5.47;;;;;;;12.29;37.34;98308.44;5092741;28;20518;-61
2021/03/02 11:40:24;;;;;;;6.80;5.28;;;;;;;10.16;37.93;98007.06;5103533;28;20308;-60
2021/03/02 11:42:52;;;;;;;4.90;4.18;;;;;;;11.47;37.66;98231.22;5105963;28;20083;-68
2021/03/02 11:45:22;;;;;;;6.00;4.20;;;;;;;11.79;38.02;98278.28;5109476;28;20501;-61
2021/03/02 11:47:49;;;;;;;5.95;4.35;;;;;;;12.09;37.65;98323.28;5087524;28;20308;-62
2021/03/02 11:50:15;;;;;;;7.32;4.20;;;;;;;11.88;38.26;98325.38;5115272;28;20031;-62